createdAt,value
2023-04-30T00:05:01.154Z,5.05
2023-04-30T00:10:05.657Z,2.97
2023-04-30T00:15:09.853Z,4.65
2023-04-30T00:20:14.535Z,3.30
2023-04-30T00:25:17.746Z,3.05
2023-04-30T00:30:22.017Z,4.05
2023-04-30T00:35:26.077Z,3.83
2023-04-30T00:40:30.408Z,4.50
2023-04-30T00:45:34.168Z,4.60
2023-04-30T00:50:38.736Z,4.55
2023-04-30T00:55:42.846Z,3.97
2023-04-30T01:00:47.677Z,2.55
2023-04-30T01:05:54.419Z,4.43
2023-04-30T01:11:36.966Z,3.00
2023-04-30T01:17:32.424Z,4.55
2023-04-30T01:22:46.642Z,2.38
2023-04-30T01:27:56.916Z,8.07
2023-04-30T01:33:02.453Z,6.10
2023-04-30T01:38:35.694Z,4.10
2023-04-30T01:44:01.545Z,3.03
2023-04-30T01:49:17.709Z,4.80
2023-04-30T01:54:31.710Z,3.42
2023-04-30T01:59:39.386Z,2.15
2023-04-30T02:04:43.285Z,1.92
2023-04-30T02:09:46.773Z,3.75
2023-04-30T02:14:50.043Z,2.53
2023-04-30T02:19:54.465Z,3.95
2023-04-30T02:24:59.280Z,2.10
2023-04-30T02:30:03.204Z,3.60
2023-04-30T02:35:07.909Z,6.68
2023-04-30T02:40:12.318Z,3.30
2023-04-30T02:45:16.014Z,4.65
2023-04-30T02:50:19.856Z,3.88
2023-04-30T02:55:23.762Z,3.15
2023-04-30T03:00:27.221Z,3.33
2023-04-30T03:05:30.872Z,3.65
2023-04-30T03:10:34.966Z,1.92
2023-04-30T03:15:38.888Z,2.58
2023-04-30T03:20:42.694Z,2.15
2023-04-30T03:25:46.926Z,2.20
2023-04-30T03:30:51.423Z,2.45
2023-04-30T03:35:55.433Z,2.65
2023-04-30T03:40:59.042Z,2.25
2023-04-30T03:46:02.519Z,1.73
2023-04-30T03:51:06.031Z,5.28
2023-04-30T03:56:09.893Z,1.67
2023-04-30T04:01:14.261Z,10.57
2023-04-30T04:06:18.244Z,2.80
2023-04-30T04:11:23.197Z,2.63
2023-04-30T04:16:27.383Z,2.75
2023-04-30T04:21:32.105Z,1.95
2023-04-30T04:26:38.296Z,3.50
2023-04-30T04:31:43.021Z,2.00
2023-04-30T04:36:48.015Z,4.18
2023-04-30T04:41:51.845Z,2.35
2023-04-30T04:46:56.972Z,3.47
2023-04-30T04:52:00.156Z,4.13
2023-04-30T04:57:03.744Z,2.97
2023-04-30T05:02:07.312Z,3.00
2023-04-30T05:07:11.110Z,2.33
2023-04-30T05:12:15.734Z,2.05
2023-04-30T05:17:19.208Z,2.65
2023-04-30T05:22:22.610Z,3.55
2023-04-30T05:27:27.753Z,2.92
2023-04-30T05:32:31.424Z,16.90
2023-04-30T05:37:35.434Z,3.97
2023-04-30T05:42:41.083Z,4.30
2023-04-30T05:47:45.808Z,4.57
2023-04-30T05:52:50.095Z,4.15
2023-04-30T05:57:53.959Z,6.22
2023-04-30T06:02:58.053Z,6.93
2023-04-30T06:08:01.584Z,4.35
2023-04-30T06:13:05.425Z,9.88
2023-04-30T06:18:14.555Z,8.10
2023-04-30T06:23:18.571Z,8.82
2023-04-30T06:28:22.243Z,5.57
2023-04-30T06:33:25.711Z,8.27
2023-04-30T06:38:30.376Z,6.38
2023-04-30T06:43:34.090Z,6.28
2023-04-30T06:48:37.830Z,6.75
2023-04-30T06:53:41.854Z,6.63
2023-04-30T06:58:45.435Z,8.05
2023-04-30T07:03:48.695Z,5.68
2023-04-30T07:08:52.043Z,5.40
2023-04-30T07:13:55.581Z,8.50
2023-04-30T07:19:00.464Z,5.18
2023-04-30T07:24:03.659Z,7.68
2023-04-30T07:29:07.120Z,3.25
2023-04-30T07:34:10.765Z,4.85
2023-04-30T07:39:14.916Z,5.75
2023-04-30T07:44:19.425Z,4.57
2023-04-30T07:49:23.070Z,5.55
2023-04-30T07:54:27.020Z,14.25
2023-04-30T07:59:30.964Z,7.35
2023-04-30T08:04:35.053Z,4.50
2023-04-30T08:09:38.653Z,5.38
2023-04-30T08:14:41.790Z,3.50
2023-04-30T08:19:44.999Z,12.40
2023-04-30T08:24:48.791Z,3.80
2023-04-30T08:29:52.571Z,4.65
2023-04-30T08:34:56.807Z,6.70
2023-04-30T08:40:01.331Z,3.97
2023-04-30T08:45:05.508Z,5.85
2023-04-30T08:50:10.556Z,4.75
2023-04-30T08:55:13.739Z,3.28
2023-04-30T09:00:17.680Z,6.78
2023-04-30T09:05:20.931Z,5.82
2023-04-30T09:10:25.386Z,7.70
2023-04-30T09:15:30.883Z,11.52
2023-04-30T09:20:35.350Z,7.88
2023-04-30T09:25:43.164Z,6.63
2023-04-30T09:30:47.248Z,8.35
2023-04-30T09:35:51.171Z,8.40
2023-04-30T09:40:55.448Z,12.40
2023-04-30T09:46:00.508Z,9.50
2023-04-30T09:51:04.695Z,9.47
2023-04-30T09:56:09.093Z,7.68
2023-04-30T10:01:13.033Z,8.70
2023-04-30T10:06:19.010Z,8.60
2023-04-30T10:16:31.148Z,9.18
2023-04-30T10:21:36.184Z,12.98
2023-04-30T10:26:40.811Z,10.00
2023-04-30T10:31:48.322Z,14.35
2023-04-30T10:37:06.110Z,11.80
2023-04-30T10:42:12.038Z,9.50
2023-04-30T10:47:20.138Z,7.45
2023-04-30T10:52:30.882Z,13.63
2023-04-30T10:57:44.286Z,11.73
2023-04-30T11:02:49.062Z,15.27
2023-04-30T11:07:58.476Z,13.43
2023-04-30T11:13:07.032Z,16.55
2023-04-30T11:18:11.178Z,15.95
2023-04-30T11:23:25.214Z,14.43
2023-04-30T11:28:38.055Z,11.98
2023-04-30T11:33:41.869Z,13.23
2023-04-30T11:38:46.518Z,15.00
2023-04-30T11:43:50.012Z,17.27
2023-04-30T11:48:53.622Z,27.98
2023-04-30T11:53:57.675Z,15.23
2023-04-30T11:59:01.417Z,10.27
2023-04-30T12:04:05.965Z,10.43
2023-04-30T12:09:10.076Z,12.23
2023-04-30T12:14:15.157Z,16.55
2023-04-30T12:19:20.515Z,17.48
2023-04-30T12:24:28.228Z,12.77
2023-04-30T12:29:31.504Z,13.90
2023-04-30T12:34:35.239Z,15.40
2023-04-30T12:39:39.063Z,18.40
2023-04-30T12:44:45.271Z,15.35
2023-04-30T12:49:50.539Z,15.23
2023-04-30T12:54:55.355Z,12.20
2023-04-30T13:00:00.585Z,13.25
2023-04-30T13:05:04.392Z,15.13
2023-04-30T13:10:08.561Z,14.82
2023-04-30T13:15:12.445Z,17.00
2023-04-30T13:20:16.498Z,6.38
2023-04-30T13:25:21.202Z,7.80
2023-04-30T13:30:25.422Z,6.05
2023-04-30T13:35:29.521Z,9.57
2023-04-30T13:40:34.919Z,11.00
2023-04-30T13:45:39.086Z,11.02
2023-04-30T13:50:42.322Z,9.27
2023-04-30T13:55:45.880Z,11.48
2023-04-30T14:00:49.724Z,11.00
2023-04-30T14:05:55.145Z,10.07
2023-04-30T14:10:59.067Z,13.30
2023-04-30T14:16:03.548Z,10.38
2023-04-30T14:21:08.300Z,9.55
2023-04-30T14:26:15.049Z,8.63
2023-04-30T14:36:22.748Z,7.35
2023-04-30T14:41:27.565Z,9.35
2023-04-30T14:46:32.009Z,6.35
2023-04-30T14:51:37.000Z,9.10
2023-04-30T14:56:41.939Z,9.43
2023-04-30T15:01:46.744Z,11.55
2023-04-30T15:06:51.717Z,64.57
2023-04-30T15:11:56.496Z,139.30
2023-04-30T15:16:59.658Z,95.13
2023-04-30T15:22:03.720Z,625.35
2023-04-30T15:27:07.592Z,509.27
2023-04-30T15:32:11.080Z,451.55
2023-04-30T15:37:14.162Z,958.22
2023-04-30T15:42:17.996Z,565.30
2023-04-30T15:47:23.901Z,569.35
2023-04-30T15:52:27.708Z,637.43
2023-04-30T15:57:31.885Z,423.25
2023-04-30T16:02:36.035Z,860.47
2023-04-30T16:07:43.928Z,426.48
2023-04-30T16:12:48.687Z,651.20
2023-04-30T16:17:53.349Z,545.40
2023-04-30T16:22:58.070Z,362.13
2023-04-30T16:28:02.117Z,552.78
2023-04-30T16:33:06.543Z,627.47
2023-04-30T16:38:10.200Z,405.48
2023-04-30T16:43:15.383Z,283.98
2023-04-30T16:48:18.899Z,225.52
2023-04-30T16:53:23.040Z,282.80
2023-04-30T16:58:26.617Z,249.88
2023-04-30T17:03:31.392Z,431.67
2023-04-30T17:08:35.051Z,595.55
2023-04-30T17:13:39.060Z,644.53
2023-04-30T17:18:42.901Z,818.42
2023-04-30T17:23:46.656Z,794.15
2023-04-30T17:28:50.786Z,651.63
2023-04-30T17:33:55.591Z,627.25
2023-04-30T17:38:59.715Z,513.58
2023-04-30T17:44:04.046Z,473.98
2023-04-30T17:49:08.376Z,255.93
2023-04-30T17:54:12.591Z,167.55
2023-04-30T17:59:16.268Z,271.80
2023-04-30T18:04:20.418Z,426.15
2023-04-30T18:09:24.219Z,289.55
2023-04-30T18:14:27.616Z,200.32
2023-04-30T18:19:32.852Z,312.55
2023-04-30T18:24:36.736Z,309.02
2023-04-30T18:29:40.207Z,248.45
2023-04-30T18:34:44.000Z,382.42
2023-04-30T18:39:47.665Z,370.33
2023-04-30T18:44:51.576Z,321.17
2023-04-30T18:49:55.916Z,513.75
2023-04-30T18:54:59.732Z,312.63
2023-04-30T19:00:02.910Z,319.13
2023-04-30T19:05:07.029Z,232.85
2023-04-30T19:10:11.105Z,210.85
2023-04-30T19:15:15.450Z,183.82
2023-04-30T19:20:18.570Z,155.68
2023-04-30T19:25:23.748Z,62.05
2023-04-30T19:33:17.501Z,149.00
2023-04-30T19:38:22.623Z,303.83
2023-04-30T19:43:26.905Z,271.13
2023-04-30T19:48:31.804Z,229.88
2023-04-30T19:53:35.826Z,215.55
2023-04-30T19:58:40.215Z,262.92
2023-04-30T20:03:45.048Z,128.15
2023-04-30T20:08:49.157Z,68.65
2023-04-30T20:13:56.628Z,259.52
2023-04-30T20:18:59.852Z,84.70
2023-04-30T20:24:04.641Z,84.10
2023-04-30T20:29:08.688Z,343.02
2023-04-30T20:34:13.459Z,179.02
2023-04-30T20:39:18.119Z,237.32
2023-04-30T20:44:21.519Z,202.88
2023-04-30T20:49:27.475Z,246.80
2023-04-30T20:54:31.231Z,498.52
2023-04-30T20:59:36.909Z,600.70
2023-04-30T21:04:41.088Z,354.48
2023-04-30T21:09:44.924Z,389.65
2023-04-30T21:14:48.155Z,320.45
2023-04-30T21:19:52.153Z,287.23
2023-04-30T21:24:56.019Z,363.40
2023-04-30T21:29:59.243Z,347.30
2023-04-30T21:35:02.839Z,224.40
2023-04-30T21:40:07.042Z,120.15
2023-04-30T21:45:10.986Z,149.27
2023-04-30T21:50:15.029Z,327.98
2023-04-30T21:55:18.558Z,265.33
2023-04-30T22:00:23.042Z,230.93
2023-04-30T22:05:26.507Z,181.82
2023-04-30T22:10:31.943Z,52.67
2023-04-30T22:15:47.096Z,164.32
2023-04-30T22:20:52.571Z,172.77
2023-04-30T22:25:56.426Z,115.13
2023-04-30T22:31:03.153Z,266.58
2023-04-30T22:36:07.513Z,257.40
2023-04-30T22:41:11.698Z,204.05
2023-04-30T22:46:15.714Z,250.80
2023-04-30T22:51:19.754Z,188.20
2023-04-30T22:56:23.573Z,193.32
2023-04-30T23:01:28.387Z,258.80
2023-04-30T23:06:33.159Z,119.32
2023-04-30T23:11:37.434Z,210.95
2023-04-30T23:33:36.803Z,146.98
2023-04-30T23:38:40.222Z,153.52
2023-04-30T23:43:43.936Z,151.20
2023-04-30T23:48:48.068Z,226.38
2023-04-30T23:53:52.092Z,109.55
2023-04-30T23:58:56.085Z,85.22
